sensor_id;sensor_type;location;lat;lon;timestamp;pressure;altitude;pressure_sealevel;temperature;humidity
26436;BME280;15351;52.408;16.826;2023-07-30T00:01:16;100021.34;;;21.48;84.07
26436;BME280;15351;52.408;16.826;2023-07-30T00:03:42;100017.34;;;21.54;84.01
26436;BME280;15351;52.408;16.826;2023-07-30T00:06:09;100023.91;;;21.57;83.55
26436;BME280;15351;52.408;16.826;2023-07-30T00:08:39;100022.91;;;21.55;83.50
26436;BME280;15351;52.408;16.826;2023-07-30T00:11:06;100023.63;;;21.55;83.35
26436;BME280;15351;52.408;16.826;2023-07-30T00:13:33;100028.50;;;21.55;83.25
26436;BME280;15351;52.408;16.826;2023-07-30T00:15:59;100027.71;;;21.53;83.22
26436;BME280;15351;52.408;16.826;2023-07-30T00:18:25;100028.36;;;21.52;83.04
26436;BME280;15351;52.408;16.826;2023-07-30T00:20:53;100022.73;;;21.50;82.97
26436;BME280;15351;52.408;16.826;2023-07-30T00:23:22;100026.95;;;21.49;82.84
26436;BME280;15351;52.408;16.826;2023-07-30T00:25:55;100024.38;;;21.49;82.92
26436;BME280;15351;52.408;16.826;2023-07-30T00:28:26;100024.56;;;21.51;82.82
26436;BME280;15351;52.408;16.826;2023-07-30T00:30:54;100024.02;;;21.51;82.55
26436;BME280;15351;52.408;16.826;2023-07-30T00:33:20;100023.57;;;21.50;82.48
26436;BME280;15351;52.408;16.826;2023-07-30T00:35:53;100033.14;;;21.48;82.30
26436;BME280;15351;52.408;16.826;2023-07-30T00:46:15;100044.44;;;21.47;82.10
26436;BME280;15351;52.408;16.826;2023-07-30T00:49:06;100046.55;;;21.45;81.99
26436;BME280;15351;52.408;16.826;2023-07-30T00:51:43;100053.91;;;21.45;82.10
26436;BME280;15351;52.408;16.826;2023-07-30T00:54:49;100051.22;;;21.45;81.91
26436;BME280;15351;52.408;16.826;2023-07-30T00:58:07;100046.73;;;21.46;82.05
26436;BME280;15351;52.408;16.826;2023-07-30T01:01:15;100043.41;;;21.48;81.85
26436;BME280;15351;52.408;16.826;2023-07-30T01:08:17;100050.30;;;21.46;81.75
26436;BME280;15351;52.408;16.826;2023-07-30T01:11:17;100053.05;;;21.46;81.63
26436;BME280;15351;52.408;16.826;2023-07-30T01:17:58;100057.57;;;21.44;81.63
26436;BME280;15351;52.408;16.826;2023-07-30T01:24:06;100052.59;;;21.44;81.60
26436;BME280;15351;52.408;16.826;2023-07-30T01:27:05;100048.43;;;21.41;81.71
26436;BME280;15351;52.408;16.826;2023-07-30T01:33:57;100053.41;;;21.44;81.66
26436;BME280;15351;52.408;16.826;2023-07-30T01:36:40;100054.56;;;21.44;81.40
26436;BME280;15351;52.408;16.826;2023-07-30T01:40:03;100055.20;;;21.40;81.38
26436;BME280;15351;52.408;16.826;2023-07-30T01:43:31;100059.55;;;21.42;81.52
26436;BME280;15351;52.408;16.826;2023-07-30T01:53:31;100051.57;;;21.40;81.47
26436;BME280;15351;52.408;16.826;2023-07-30T01:56:43;100047.33;;;21.38;81.47
26436;BME280;15351;52.408;16.826;2023-07-30T02:00:29;100048.88;;;21.40;81.48
26436;BME280;15351;52.408;16.826;2023-07-30T02:03:35;100057.81;;;21.38;81.33
26436;BME280;15351;52.408;16.826;2023-07-30T02:06:25;100061.52;;;21.35;81.21
26436;BME280;15351;52.408;16.826;2023-07-30T02:09:40;100059.80;;;21.31;81.09
26436;BME280;15351;52.408;16.826;2023-07-30T02:20:48;100059.36;;;21.24;80.80
26436;BME280;15351;52.408;16.826;2023-07-30T02:32:55;100078.39;;;21.11;81.23
26436;BME280;15351;52.408;16.826;2023-07-30T02:36:47;100076.55;;;21.10;81.45
26436;BME280;15351;52.408;16.826;2023-07-30T02:39:59;100079.25;;;21.11;81.45
26436;BME280;15351;52.408;16.826;2023-07-30T02:49:56;100073.27;;;21.10;81.64
26436;BME280;15351;52.408;16.826;2023-07-30T02:52:58;100072.14;;;21.12;81.60
26436;BME280;15351;52.408;16.826;2023-07-30T03:00:31;100070.64;;;21.04;81.24
26436;BME280;15351;52.408;16.826;2023-07-30T03:03:43;100083.02;;;21.06;81.26
26436;BME280;15351;52.408;16.826;2023-07-30T03:07:08;100081.06;;;21.03;81.30
26436;BME280;15351;52.408;16.826;2023-07-30T03:13:58;100079.19;;;21.00;81.46
26436;BME280;15351;52.408;16.826;2023-07-30T03:16:32;100083.79;;;21.02;81.32
26436;BME280;15351;52.408;16.826;2023-07-30T03:18:59;100082.06;;;21.01;81.33
26436;BME280;15351;52.408;16.826;2023-07-30T03:21:29;100085.60;;;20.99;81.38
26436;BME280;15351;52.408;16.826;2023-07-30T03:24:02;100088.86;;;20.98;81.30
26436;BME280;15351;52.408;16.826;2023-07-30T03:26:43;100095.70;;;20.96;81.36
26436;BME280;15351;52.408;16.826;2023-07-30T03:29:17;100090.37;;;20.96;81.38
26436;BME280;15351;52.408;16.826;2023-07-30T03:32:08;100093.06;;;20.93;81.22
26436;BME280;15351;52.408;16.826;2023-07-30T03:34:56;100094.23;;;20.92;81.38
26436;BME280;15351;52.408;16.826;2023-07-30T03:38:08;100097.96;;;20.91;81.39
26436;BME280;15351;52.408;16.826;2023-07-30T03:40:37;100097.20;;;20.91;81.36
26436;BME280;15351;52.408;16.826;2023-07-30T03:43:07;100093.50;;;20.90;81.39
26436;BME280;15351;52.408;16.826;2023-07-30T03:45:57;100095.64;;;20.90;81.34
26436;BME280;15351;52.408;16.826;2023-07-30T03:51:59;100094.52;;;20.85;81.44
26436;BME280;15351;52.408;16.826;2023-07-30T03:54:28;100098.51;;;20.84;81.48
26436;BME280;15351;52.408;16.826;2023-07-30T03:56:58;100097.21;;;20.85;81.58
26436;BME280;15351;52.408;16.826;2023-07-30T04:00:09;100104.33;;;20.87;81.46
26436;BME280;15351;52.408;16.826;2023-07-30T04:02:48;100107.09;;;20.85;81.52
26436;BME280;15351;52.408;16.826;2023-07-30T04:05:18;100111.20;;;20.84;81.80
26436;BME280;15351;52.408;16.826;2023-07-30T04:07:52;100112.09;;;20.82;81.80
26436;BME280;15351;52.408;16.826;2023-07-30T04:11:08;100119.85;;;20.84;81.80
26436;BME280;15351;52.408;16.826;2023-07-30T04:16:44;100120.07;;;20.84;82.10
26436;BME280;15351;52.408;16.826;2023-07-30T04:19:13;100122.70;;;20.87;82.22
26436;BME280;15351;52.408;16.826;2023-07-30T04:21:47;100119.13;;;20.87;82.06
26436;BME280;15351;52.408;16.826;2023-07-30T04:24:24;100118.95;;;20.83;82.11
26436;BME280;15351;52.408;16.826;2023-07-30T04:27:02;100121.61;;;20.81;82.25
26436;BME280;15351;52.408;16.826;2023-07-30T04:29:29;100127.91;;;20.84;82.31
26436;BME280;15351;52.408;16.826;2023-07-30T04:32:02;100135.59;;;20.84;82.39
26436;BME280;15351;52.408;16.826;2023-07-30T04:34:36;100134.95;;;20.81;82.47
26436;BME280;15351;52.408;16.826;2023-07-30T04:43:34;100148.40;;;20.83;82.96
26436;BME280;15351;52.408;16.826;2023-07-30T04:46:04;100149.48;;;20.87;82.99
26436;BME280;15351;52.408;16.826;2023-07-30T04:48:34;100155.16;;;20.89;83.05
26436;BME280;15351;52.408;16.826;2023-07-30T04:51:02;100156.73;;;20.89;83.12
26436;BME280;15351;52.408;16.826;2023-07-30T04:53:41;100157.98;;;20.87;83.14
26436;BME280;15351;52.408;16.826;2023-07-30T04:56:08;100164.48;;;20.86;82.99
26436;BME280;15351;52.408;16.826;2023-07-30T04:59:02;100163.91;;;20.84;83.26
26436;BME280;15351;52.408;16.826;2023-07-30T05:02:09;100158.90;;;20.87;83.37
26436;BME280;15351;52.408;16.826;2023-07-30T05:05:04;100159.04;;;20.86;83.44
26436;BME280;15351;52.408;16.826;2023-07-30T05:07:55;100162.25;;;20.91;83.28
26436;BME280;15351;52.408;16.826;2023-07-30T05:14:03;100169.51;;;20.94;83.37
26436;BME280;15351;52.408;16.826;2023-07-30T05:16:32;100175.71;;;20.97;83.42
26436;BME280;15351;52.408;16.826;2023-07-30T05:18:59;100175.46;;;20.96;83.12
26436;BME280;15351;52.408;16.826;2023-07-30T05:25:07;100173.71;;;20.90;83.22
26436;BME280;15351;52.408;16.826;2023-07-30T05:27:53;100170.19;;;20.92;83.49
26436;BME280;15351;52.408;16.826;2023-07-30T05:30:53;100173.48;;;20.98;83.53
26436;BME280;15351;52.408;16.826;2023-07-30T05:33:22;100167.85;;;21.02;83.62
26436;BME280;15351;52.408;16.826;2023-07-30T05:36:42;100168.56;;;21.05;83.34
26436;BME280;15351;52.408;16.826;2023-07-30T05:39:32;100170.96;;;21.05;83.12
26436;BME280;15351;52.408;16.826;2023-07-30T05:41:59;100175.80;;;21.08;83.24
26436;BME280;15351;52.408;16.826;2023-07-30T05:47:48;100176.25;;;21.12;83.00
26436;BME280;15351;52.408;16.826;2023-07-30T05:50:18;100178.95;;;21.06;82.67
26436;BME280;15351;52.408;16.826;2023-07-30T05:52:44;100177.17;;;21.05;82.80
26436;BME280;15351;52.408;16.826;2023-07-30T05:55:19;100168.48;;;21.07;82.89
26436;BME280;15351;52.408;16.826;2023-07-30T05:58:03;100168.86;;;21.10;83.01
26436;BME280;15351;52.408;16.826;2023-07-30T06:00:33;100169.95;;;21.14;83.11
26436;BME280;15351;52.408;16.826;2023-07-30T06:03:19;100166.14;;;21.16;82.88
26436;BME280;15351;52.408;16.826;2023-07-30T06:05:58;100167.98;;;21.21;82.91
26436;BME280;15351;52.408;16.826;2023-07-30T06:08:32;100167.28;;;21.30;82.88
26436;BME280;15351;52.408;16.826;2023-07-30T06:11:03;100159.72;;;21.35;82.66
26436;BME280;15351;52.408;16.826;2023-07-30T06:20:28;100165.31;;;21.47;82.41
26436;BME280;15351;52.408;16.826;2023-07-30T06:23:17;100169.35;;;21.53;82.38
26436;BME280;15351;52.408;16.826;2023-07-30T06:25:44;100168.13;;;21.59;82.32
26436;BME280;15351;52.408;16.826;2023-07-30T06:31:19;100169.73;;;21.66;82.08
26436;BME280;15351;52.408;16.826;2023-07-30T06:33:48;100170.59;;;21.73;82.13
26436;BME280;15351;52.408;16.826;2023-07-30T06:36:37;100167.86;;;21.77;82.23
26436;BME280;15351;52.408;16.826;2023-07-30T06:42:38;100169.47;;;21.86;81.75
26436;BME280;15351;52.408;16.826;2023-07-30T06:45:08;100175.20;;;21.93;81.63
26436;BME280;15351;52.408;16.826;2023-07-30T06:47:44;100176.48;;;21.91;81.24
26436;BME280;15351;52.408;16.826;2023-07-30T06:51:09;100180.52;;;21.95;81.38
26436;BME280;15351;52.408;16.826;2023-07-30T06:54:13;100171.79;;;22.00;81.34
26436;BME280;15351;52.408;16.826;2023-07-30T06:59:57;100172.00;;;22.15;80.47
26436;BME280;15351;52.408;16.826;2023-07-30T07:02:44;100173.06;;;22.17;80.22
26436;BME280;15351;52.408;16.826;2023-07-30T07:05:15;100173.55;;;22.23;80.51
26436;BME280;15351;52.408;16.826;2023-07-30T07:08:03;100167.85;;;22.30;80.55
26436;BME280;15351;52.408;16.826;2023-07-30T07:10:39;100174.41;;;22.39;80.57
26436;BME280;15351;52.408;16.826;2023-07-30T07:13:09;100172.97;;;22.43;80.29
26436;BME280;15351;52.408;16.826;2023-07-30T07:15:44;100178.96;;;22.41;79.66
26436;BME280;15351;52.408;16.826;2023-07-30T07:18:53;100182.82;;;22.43;79.42
26436;BME280;15351;52.408;16.826;2023-07-30T07:21:23;100185.73;;;22.52;79.46
26436;BME280;15351;52.408;16.826;2023-07-30T07:23:52;100185.30;;;22.61;79.21
26436;BME280;15351;52.408;16.826;2023-07-30T07:26:25;100181.95;;;22.74;79.26
26436;BME280;15351;52.408;16.826;2023-07-30T07:29:09;100178.88;;;22.84;79.28
26436;BME280;15351;52.408;16.826;2023-07-30T07:41:38;100184.52;;;23.31;77.00
26436;BME280;15351;52.408;16.826;2023-07-30T07:44:51;100194.34;;;23.37;76.81
26436;BME280;15351;52.408;16.826;2023-07-30T07:48:12;100200.23;;;23.42;76.16
26436;BME280;15351;52.408;16.826;2023-07-30T07:51:10;100199.88;;;23.39;75.24
26436;BME280;15351;52.408;16.826;2023-07-30T07:54:39;100200.58;;;23.37;74.87
26436;BME280;15351;52.408;16.826;2023-07-30T07:57:17;100201.42;;;23.41;75.16
26436;BME280;15351;52.408;16.826;2023-07-30T08:06:54;100194.16;;;23.68;74.55
26436;BME280;15351;52.408;16.826;2023-07-30T08:10:25;100189.33;;;23.76;74.31
26436;BME280;15351;52.408;16.826;2023-07-30T08:13:00;100194.26;;;23.90;74.48
26436;BME280;15351;52.408;16.826;2023-07-30T08:22:13;100199.31;;;24.25;73.24
26436;BME280;15351;52.408;16.826;2023-07-30T08:28:00;100202.98;;;24.34;72.58
26436;BME280;15351;52.408;16.826;2023-07-30T08:34:07;100204.60;;;24.61;72.05
26436;BME280;15351;52.408;16.826;2023-07-30T08:46:52;100199.55;;;24.94;71.13
26436;BME280;15351;52.408;16.826;2023-07-30T08:53:13;100207.17;;;25.24;71.06
26436;BME280;15351;52.408;16.826;2023-07-30T08:56:00;100204.13;;;25.40;71.08
26436;BME280;15351;52.408;16.826;2023-07-30T09:02:55;100206.89;;;25.64;68.73
26436;BME280;15351;52.408;16.826;2023-07-30T09:06:20;100211.70;;;25.74;68.75
26436;BME280;15351;52.408;16.826;2023-07-30T09:16:19;100198.96;;;25.90;66.20
26436;BME280;15351;52.408;16.826;2023-07-30T09:19:22;100198.95;;;25.92;65.62
26436;BME280;15351;52.408;16.826;2023-07-30T09:21:52;100195.75;;;25.92;65.19
26436;BME280;15351;52.408;16.826;2023-07-30T09:25:03;100197.89;;;25.94;65.36
26436;BME280;15351;52.408;16.826;2023-07-30T09:28:02;100186.63;;;25.89;64.42
26436;BME280;15351;52.408;16.826;2023-07-30T09:31:23;100193.77;;;25.88;62.52
26436;BME280;15351;52.408;16.826;2023-07-30T09:34:15;100190.49;;;25.90;61.88
26436;BME280;15351;52.408;16.826;2023-07-30T09:37:09;100191.10;;;25.90;61.68
26436;BME280;15351;52.408;16.826;2023-07-30T09:43:56;100194.83;;;25.87;61.74
26436;BME280;15351;52.408;16.826;2023-07-30T09:50:59;100203.12;;;25.80;60.91
26436;BME280;15351;52.408;16.826;2023-07-30T09:53:45;100200.59;;;25.84;60.97
26436;BME280;15351;52.408;16.826;2023-07-30T09:57:00;100202.99;;;25.91;61.39
26436;BME280;15351;52.408;16.826;2023-07-30T09:59:48;100208.69;;;25.92;60.32
26436;BME280;15351;52.408;16.826;2023-07-30T10:02:49;100208.88;;;25.87;59.93
26436;BME280;15351;52.408;16.826;2023-07-30T10:05:34;100198.32;;;25.80;60.01
26436;BME280;15351;52.408;16.826;2023-07-30T10:12:31;100199.70;;;25.85;59.78
26436;BME280;15351;52.408;16.826;2023-07-30T10:15:38;100199.42;;;25.96;60.17
26436;BME280;15351;52.408;16.826;2023-07-30T10:19:00;100197.70;;;26.04;59.15
26436;BME280;15351;52.408;16.826;2023-07-30T10:26:13;100201.27;;;26.18;58.31
26436;BME280;15351;52.408;16.826;2023-07-30T10:29:31;100195.30;;;26.33;58.63
26436;BME280;15351;52.408;16.826;2023-07-30T10:36:04;100180.53;;;26.61;57.57
26436;BME280;15351;52.408;16.826;2023-07-30T10:38:53;100190.75;;;26.80;57.73
26436;BME280;15351;52.408;16.826;2023-07-30T10:42:03;100182.34;;;26.97;57.53
26436;BME280;15351;52.408;16.826;2023-07-30T10:44:34;100185.45;;;27.14;57.03
26436;BME280;15351;52.408;16.826;2023-07-30T10:47:26;100187.95;;;27.26;56.14
26436;BME280;15351;52.408;16.826;2023-07-30T10:50:13;100182.80;;;27.31;55.04
26436;BME280;15351;52.408;16.826;2023-07-30T10:52:53;100175.91;;;27.32;54.90
26436;BME280;15351;52.408;16.826;2023-07-30T10:58:10;100171.75;;;27.54;56.17
26436;BME280;15351;52.408;16.826;2023-07-30T11:00:37;100173.91;;;27.59;55.12
26436;BME280;15351;52.408;16.826;2023-07-30T11:03:41;100168.76;;;27.65;55.14
26436;BME280;15351;52.408;16.826;2023-07-30T11:06:27;100169.13;;;27.74;54.77
26436;BME280;15351;52.408;16.826;2023-07-30T11:12:28;100165.14;;;27.92;54.37
26436;BME280;15351;52.408;16.826;2023-07-30T11:15:44;100161.61;;;28.00;53.45
26436;BME280;15351;52.408;16.826;2023-07-30T11:21:06;100157.28;;;28.10;53.38
26436;BME280;15351;52.408;16.826;2023-07-30T11:23:54;100147.83;;;28.03;52.42
26436;BME280;15351;52.408;16.826;2023-07-30T11:26:29;100146.95;;;28.01;52.56
26436;BME280;15351;52.408;16.826;2023-07-30T11:29:17;100148.70;;;28.05;52.93
26436;BME280;15351;52.408;16.826;2023-07-30T11:32:02;100150.27;;;28.07;52.78
26436;BME280;15351;52.408;16.826;2023-07-30T11:34:53;100144.41;;;28.09;52.76
26436;BME280;15351;52.408;16.826;2023-07-30T11:38:10;100142.77;;;28.03;52.33
26436;BME280;15351;52.408;16.826;2023-07-30T11:40:49;100136.05;;;28.03;52.78
26436;BME280;15351;52.408;16.826;2023-07-30T11:43:16;100138.96;;;28.06;52.80
26436;BME280;15351;52.408;16.826;2023-07-30T11:46:45;100141.56;;;28.07;51.95
26436;BME280;15351;52.408;16.826;2023-07-30T11:52:52;100139.14;;;28.15;51.77
26436;BME280;15351;52.408;16.826;2023-07-30T11:59:26;100138.11;;;27.75;51.35
26436;BME280;15351;52.408;16.826;2023-07-30T12:02:37;100138.14;;;27.52;51.52
26436;BME280;15351;52.408;16.826;2023-07-30T12:05:23;100127.52;;;27.50;51.82
26436;BME280;15351;52.408;16.826;2023-07-30T12:08:13;100124.16;;;27.65;51.66
26436;BME280;15351;52.408;16.826;2023-07-30T12:10:46;100119.11;;;27.77;51.74
26436;BME280;15351;52.408;16.826;2023-07-30T12:13:21;100118.92;;;27.92;51.50
26436;BME280;15351;52.408;16.826;2023-07-30T12:16:07;100115.86;;;27.82;50.68
26436;BME280;15351;52.408;16.826;2023-07-30T12:19:37;100105.57;;;27.78;50.75
26436;BME280;15351;52.408;16.826;2023-07-30T12:22:10;100098.23;;;27.87;50.93
26436;BME280;15351;52.408;16.826;2023-07-30T12:25:44;100097.58;;;27.84;51.26
26436;BME280;15351;52.408;16.826;2023-07-30T12:31:50;100093.90;;;27.62;50.62
26436;BME280;15351;52.408;16.826;2023-07-30T12:34:31;100086.95;;;27.59;50.64
26436;BME280;15351;52.408;16.826;2023-07-30T12:37:01;100080.09;;;27.52;50.51
26436;BME280;15351;52.408;16.826;2023-07-30T12:39:34;100079.52;;;27.55;51.17
26436;BME280;15351;52.408;16.826;2023-07-30T12:42:56;100071.84;;;27.66;50.92
26436;BME280;15351;52.408;16.826;2023-07-30T12:45:48;100070.32;;;27.75;50.46
26436;BME280;15351;52.408;16.826;2023-07-30T12:52:50;100060.10;;;27.96;51.25
26436;BME280;15351;52.408;16.826;2023-07-30T12:55:21;100057.66;;;28.06;51.27
26436;BME280;15351;52.408;16.826;2023-07-30T12:58:10;100061.94;;;28.05;50.27
26436;BME280;15351;52.408;16.826;2023-07-30T13:04:14;100056.91;;;28.11;49.58
26436;BME280;15351;52.408;16.826;2023-07-30T13:07:04;100051.01;;;28.17;49.69
26436;BME280;15351;52.408;16.826;2023-07-30T13:09:58;100046.81;;;28.15;48.95
26436;BME280;15351;52.408;16.826;2023-07-30T13:12:53;100050.24;;;28.11;49.29
26436;BME280;15351;52.408;16.826;2023-07-30T13:16:09;100043.52;;;27.99;48.60
26436;BME280;15351;52.408;16.826;2023-07-30T13:25:05;100057.61;;;27.52;48.21
26436;BME280;15351;52.408;16.826;2023-07-30T13:31:17;100053.71;;;27.28;48.40
26436;BME280;15351;52.408;16.826;2023-07-30T13:37:34;100045.09;;;27.11;49.29
26436;BME280;15351;52.408;16.826;2023-07-30T13:41:03;100029.48;;;27.14;50.81
26436;BME280;15351;52.408;16.826;2023-07-30T13:44:33;100029.70;;;27.23;50.65
26436;BME280;15351;52.408;16.826;2023-07-30T13:51:04;100023.40;;;27.37;49.89
26436;BME280;15351;52.408;16.826;2023-07-30T13:53:55;100021.80;;;27.43;48.97
26436;BME280;15351;52.408;16.826;2023-07-30T14:00:09;100016.45;;;27.60;48.74
26436;BME280;15351;52.408;16.826;2023-07-30T14:13:07;100010.89;;;27.70;47.26
26436;BME280;15351;52.408;16.826;2023-07-30T14:19:33;100018.44;;;27.55;46.91
26436;BME280;15351;52.408;16.826;2023-07-30T14:25:28;100017.92;;;27.35;47.66
26436;BME280;15351;52.408;16.826;2023-07-30T14:28:46;100024.02;;;27.35;47.99
26436;BME280;15351;52.408;16.826;2023-07-30T14:31:25;100026.84;;;27.28;48.19
26436;BME280;15351;52.408;16.826;2023-07-30T14:38:15;100039.78;;;27.02;49.98
26436;BME280;15351;52.408;16.826;2023-07-30T14:40:59;100040.38;;;26.78;51.49
26436;BME280;15351;52.408;16.826;2023-07-30T14:50:27;100065.25;;;25.82;55.18
26436;BME280;15351;52.408;16.826;2023-07-30T14:57:24;100074.92;;;25.39;57.46
26436;BME280;15351;52.408;16.826;2023-07-30T15:04:00;100071.04;;;25.01;59.07
26436;BME280;15351;52.408;16.826;2023-07-30T15:10:22;100070.83;;;24.89;60.38
26436;BME280;15351;52.408;16.826;2023-07-30T15:13:47;100065.84;;;24.84;60.70
26436;BME280;15351;52.408;16.826;2023-07-30T15:17:02;100062.91;;;24.82;61.29
26436;BME280;15351;52.408;16.826;2023-07-30T15:19:56;100060.27;;;24.87;61.80
26436;BME280;15351;52.408;16.826;2023-07-30T15:23:03;100064.20;;;24.95;61.92
26436;BME280;15351;52.408;16.826;2023-07-30T15:25:51;100058.95;;;25.03;62.00
26436;BME280;15351;52.408;16.826;2023-07-30T15:28:21;100059.28;;;25.07;61.75
26436;BME280;15351;52.408;16.826;2023-07-30T15:30:48;100063.41;;;25.11;61.44
26436;BME280;15351;52.408;16.826;2023-07-30T15:33:23;100062.35;;;25.16;61.03
26436;BME280;15351;52.408;16.826;2023-07-30T15:35:49;100055.73;;;25.20;60.91
26436;BME280;15351;52.408;16.826;2023-07-30T15:38:16;100053.91;;;25.22;60.51
26436;BME280;15351;52.408;16.826;2023-07-30T15:40:44;100050.27;;;25.22;59.88
26436;BME280;15351;52.408;16.826;2023-07-30T15:43:10;100048.55;;;25.24;59.40
26436;BME280;15351;52.408;16.826;2023-07-30T15:45:44;100045.16;;;25.26;58.67
26436;BME280;15351;52.408;16.826;2023-07-30T15:48:21;100045.65;;;25.30;58.48
26436;BME280;15351;52.408;16.826;2023-07-30T15:51:03;100048.77;;;25.34;57.99
26436;BME280;15351;52.408;16.826;2023-07-30T15:53:30;100053.76;;;25.35;58.16
26436;BME280;15351;52.408;16.826;2023-07-30T15:56:01;100054.59;;;25.36;58.35
26436;BME280;15351;52.408;16.826;2023-07-30T15:58:31;100052.16;;;25.36;58.08
26436;BME280;15351;52.408;16.826;2023-07-30T16:00:57;100050.52;;;25.35;58.32
26436;BME280;15351;52.408;16.826;2023-07-30T16:03:39;100053.13;;;25.34;57.98
26436;BME280;15351;52.408;16.826;2023-07-30T16:06:17;100056.53;;;25.32;56.97
26436;BME280;15351;52.408;16.826;2023-07-30T16:08:43;100055.05;;;25.28;56.62
26436;BME280;15351;52.408;16.826;2023-07-30T16:11:11;100054.46;;;25.26;56.81
26436;BME280;15351;52.408;16.826;2023-07-30T16:13:39;100054.79;;;25.25;57.11
26436;BME280;15351;52.408;16.826;2023-07-30T16:16:16;100058.31;;;25.26;57.50
26436;BME280;15351;52.408;16.826;2023-07-30T16:18:53;100061.02;;;25.29;57.90
26436;BME280;15351;52.408;16.826;2023-07-30T16:21:36;100057.58;;;25.33;57.85
26436;BME280;15351;52.408;16.826;2023-07-30T16:24:03;100058.67;;;25.38;57.65
26436;BME280;15351;52.408;16.826;2023-07-30T16:26:32;100059.16;;;25.40;56.59
26436;BME280;15351;52.408;16.826;2023-07-30T16:29:02;100059.27;;;25.42;56.20
26436;BME280;15351;52.408;16.826;2023-07-30T16:31:52;100062.17;;;25.47;55.71
26436;BME280;15351;52.408;16.826;2023-07-30T16:34:26;100060.75;;;25.50;55.60
26436;BME280;15351;52.408;16.826;2023-07-30T16:37:32;100065.06;;;25.51;55.63
26436;BME280;15351;52.408;16.826;2023-07-30T16:40:42;100070.77;;;25.54;55.77
26436;BME280;15351;52.408;16.826;2023-07-30T16:43:12;100066.23;;;25.52;55.46
26436;BME280;15351;52.408;16.826;2023-07-30T16:45:39;100069.48;;;25.49;55.33
26436;BME280;15351;52.408;16.826;2023-07-30T16:48:08;100073.90;;;25.47;55.27
26436;BME280;15351;52.408;16.826;2023-07-30T16:50:44;100077.00;;;25.46;55.41
26436;BME280;15351;52.408;16.826;2023-07-30T16:53:49;100078.33;;;25.44;55.70
26436;BME280;15351;52.408;16.826;2023-07-30T16:56:18;100075.42;;;25.38;54.94
26436;BME280;15351;52.408;16.826;2023-07-30T16:59:18;100079.08;;;25.32;54.63
26436;BME280;15351;52.408;16.826;2023-07-30T17:01:50;100091.58;;;25.29;54.70
26436;BME280;15351;52.408;16.826;2023-07-30T17:04:22;100093.74;;;25.26;54.63
26436;BME280;15351;52.408;16.826;2023-07-30T17:07:08;100100.22;;;25.24;54.61
26436;BME280;15351;52.408;16.826;2023-07-30T17:13:47;100104.79;;;25.19;54.53
26436;BME280;15351;52.408;16.826;2023-07-30T17:16:35;100106.83;;;25.17;54.01
26436;BME280;15351;52.408;16.826;2023-07-30T17:19:52;100106.12;;;25.10;52.78
26436;BME280;15351;52.408;16.826;2023-07-30T17:22:19;100107.78;;;25.06;52.11
26436;BME280;15351;52.408;16.826;2023-07-30T17:24:48;100109.33;;;25.04;51.99
26436;BME280;15351;52.408;16.826;2023-07-30T17:28:10;100114.27;;;25.03;51.57
26436;BME280;15351;52.408;16.826;2023-07-30T17:31:26;100112.29;;;25.00;51.25
26436;BME280;15351;52.408;16.826;2023-07-30T17:34:41;100110.91;;;24.98;50.55
26436;BME280;15351;52.408;16.826;2023-07-30T17:37:11;100118.54;;;24.90;49.37
26436;BME280;15351;52.408;16.826;2023-07-30T17:39:55;100119.08;;;24.87;49.33
26436;BME280;15351;52.408;16.826;2023-07-30T17:42:57;100121.83;;;24.85;49.51
26436;BME280;15351;52.408;16.826;2023-07-30T17:46:49;100132.81;;;24.80;48.80
26436;BME280;15351;52.408;16.826;2023-07-30T17:50:13;100131.32;;;24.75;48.27
26436;BME280;15351;52.408;16.826;2023-07-30T17:53:54;100132.55;;;24.68;47.99
26436;BME280;15351;52.408;16.826;2023-07-30T18:00:23;100135.39;;;24.60;48.68
26436;BME280;15351;52.408;16.826;2023-07-30T18:02:50;100138.77;;;24.55;49.05
26436;BME280;15351;52.408;16.826;2023-07-30T18:05:22;100142.35;;;24.52;48.58
26436;BME280;15351;52.408;16.826;2023-07-30T18:07:51;100139.54;;;24.47;47.82
26436;BME280;15351;52.408;16.826;2023-07-30T18:10:17;100141.19;;;24.44;47.94
26436;BME280;15351;52.408;16.826;2023-07-30T18:12:54;100137.36;;;24.41;48.48
26436;BME280;15351;52.408;16.826;2023-07-30T18:15:24;100137.06;;;24.38;48.68
26436;BME280;15351;52.408;16.826;2023-07-30T18:17:51;100137.88;;;24.33;48.30
26436;BME280;15351;52.408;16.826;2023-07-30T18:20:17;100139.42;;;24.28;49.01
26436;BME280;15351;52.408;16.826;2023-07-30T18:22:43;100144.35;;;24.23;49.11
26436;BME280;15351;52.408;16.826;2023-07-30T18:25:10;100142.73;;;24.18;48.50
26436;BME280;15351;52.408;16.826;2023-07-30T18:27:36;100149.62;;;24.14;48.01
26436;BME280;15351;52.408;16.826;2023-07-30T18:30:08;100151.91;;;24.11;48.92
26436;BME280;15351;52.408;16.826;2023-07-30T18:32:35;100151.22;;;24.08;49.78
26436;BME280;15351;52.408;16.826;2023-07-30T18:35:04;100155.98;;;24.02;49.66
26436;BME280;15351;52.408;16.826;2023-07-30T18:37:30;100156.09;;;23.95;49.14
26436;BME280;15351;52.408;16.826;2023-07-30T18:39:59;100161.50;;;23.89;49.67
26436;BME280;15351;52.408;16.826;2023-07-30T18:42:26;100164.52;;;23.82;50.56
26436;BME280;15351;52.408;16.826;2023-07-30T18:44:54;100163.76;;;23.71;51.66
26436;BME280;15351;52.408;16.826;2023-07-30T18:47:42;100169.30;;;23.61;52.37
26436;BME280;15351;52.408;16.826;2023-07-30T18:50:08;100177.06;;;23.51;52.65